createdAt,value
2022-09-23T00:01:57.092Z,1.73
2022-09-23T00:04:44.213Z,2.10
2022-09-23T00:07:30.987Z,1.80
2022-09-23T00:10:19.306Z,2.03
2022-09-23T00:13:07.321Z,2.13
2022-09-23T00:15:54.157Z,1.80
2022-09-23T00:18:42.854Z,1.70
2022-09-23T00:21:30.376Z,1.80
2022-09-23T00:24:17.457Z,1.60
2022-09-23T00:27:06.352Z,1.90
2022-09-23T00:29:53.130Z,2.07
2022-09-23T00:32:40.613Z,2.00
2022-09-23T00:35:27.212Z,2.27
2022-09-23T00:38:14.314Z,2.13
2022-09-23T00:41:02.051Z,1.67
2022-09-23T00:43:52.920Z,2.27
2022-09-23T00:46:44.095Z,1.90
2022-09-23T00:49:32.136Z,2.33
2022-09-23T00:52:21.706Z,2.40
2022-09-23T00:55:12.447Z,2.30
2022-09-23T00:58:01.982Z,2.10
2022-09-23T01:00:50.448Z,2.40
2022-09-23T01:03:37.401Z,1.97
2022-09-23T01:06:24.306Z,1.93
2022-09-23T01:09:11.017Z,2.33
2022-09-23T01:12:10.088Z,2.03
2022-09-23T01:15:04.247Z,2.77
2022-09-23T01:18:00.824Z,2.07
2022-09-23T01:20:59.591Z,2.07
2022-09-23T01:24:16.039Z,2.30
2022-09-23T01:27:13.058Z,1.90
2022-09-23T01:30:16.772Z,2.17
2022-09-23T01:33:14.866Z,2.30
2022-09-23T01:36:11.259Z,2.17
2022-09-23T01:39:03.951Z,2.40
2022-09-23T01:41:56.118Z,2.33
2022-09-23T01:44:48.281Z,2.70
2022-09-23T01:47:39.657Z,2.40
2022-09-23T01:50:50.885Z,2.07
2022-09-23T01:53:43.026Z,3.20
2022-09-23T01:56:36.756Z,2.33
2022-09-23T01:59:30.379Z,3.07
2022-09-23T02:02:22.007Z,2.77
2022-09-23T02:05:14.433Z,2.20
2022-09-23T02:08:06.166Z,2.43
2022-09-23T02:10:57.307Z,3.40
2022-09-23T02:13:49.708Z,2.57
2022-09-23T02:16:40.354Z,2.83
2022-09-23T02:19:31.624Z,2.93
2022-09-23T02:22:22.512Z,3.07
2022-09-23T02:25:13.146Z,2.73
2022-09-23T02:28:09.928Z,2.77
2022-09-23T02:31:08.683Z,3.00
2022-09-23T02:33:59.307Z,2.87
2022-09-23T02:36:56.635Z,2.47
2022-09-23T02:39:55.901Z,2.73
2022-09-23T02:42:51.697Z,2.53
2022-09-23T02:45:39.216Z,2.50
2022-09-23T02:48:30.453Z,3.13
2022-09-23T02:51:17.601Z,2.70
2022-09-23T02:54:07.228Z,2.67
2022-09-23T02:56:54.418Z,2.10
2022-09-23T02:59:42.651Z,3.47
2022-09-23T03:02:51.598Z,2.63
2022-09-23T03:05:46.384Z,2.60
2022-09-23T03:08:45.516Z,2.37
2022-09-23T03:11:35.378Z,3.20
2022-09-23T03:14:30.129Z,2.53
2022-09-23T03:17:25.266Z,2.30
2022-09-23T03:20:16.494Z,2.57
2022-09-23T03:23:07.265Z,2.77
2022-09-23T03:25:57.064Z,2.20
2022-09-23T03:28:45.531Z,2.77
2022-09-23T03:31:33.570Z,2.80
2022-09-23T03:34:26.169Z,1.77
2022-09-23T03:37:18.087Z,2.70
2022-09-23T03:40:10.111Z,2.07
2022-09-23T03:42:58.531Z,2.47
2022-09-23T03:45:48.102Z,2.50
2022-09-23T03:48:35.300Z,2.23
2022-09-23T03:51:25.201Z,2.27
2022-09-23T03:54:12.242Z,1.87
2022-09-23T03:56:59.894Z,1.97
2022-09-23T03:59:46.926Z,1.60
2022-09-23T04:02:34.536Z,1.87
2022-09-23T04:05:21.721Z,2.80
2022-09-23T04:08:10.026Z,2.00
2022-09-23T04:11:01.682Z,1.97
2022-09-23T04:13:48.566Z,2.07
2022-09-23T04:16:35.685Z,2.73
2022-09-23T04:19:22.417Z,2.60
2022-09-23T04:22:10.296Z,2.50
2022-09-23T04:24:58.701Z,3.90
2022-09-23T04:27:45.573Z,2.50
2022-09-23T04:30:32.617Z,2.70
2022-09-23T04:33:19.251Z,2.37
2022-09-23T04:36:06.706Z,1.93
2022-09-23T04:38:53.792Z,2.07
2022-09-23T04:41:42.040Z,2.40
2022-09-23T04:44:29.599Z,2.90
2022-09-23T04:47:16.507Z,2.27
2022-09-23T04:50:03.391Z,2.27
2022-09-23T04:52:50.240Z,2.37
2022-09-23T04:55:37.591Z,2.17
2022-09-23T04:58:25.692Z,2.30
2022-09-23T05:01:14.333Z,2.70
2022-09-23T05:04:03.640Z,2.60
2022-09-23T05:06:50.597Z,2.60
2022-09-23T05:09:38.124Z,1.93
2022-09-23T05:12:24.948Z,1.70
2022-09-23T05:15:16.144Z,2.33
2022-09-23T05:18:03.439Z,2.10
2022-09-23T05:20:55.085Z,2.23
2022-09-23T05:23:42.856Z,2.93
2022-09-23T05:26:31.219Z,2.30
2022-09-23T05:29:18.178Z,2.93
2022-09-23T05:32:06.753Z,3.27
2022-09-23T05:34:55.777Z,2.90
2022-09-23T05:37:42.822Z,3.17
2022-09-23T05:40:29.851Z,2.87
2022-09-23T05:43:17.082Z,2.80
2022-09-23T05:46:08.351Z,3.07
2022-09-23T05:49:02.698Z,4.70
2022-09-23T05:51:50.363Z,3.97
2022-09-23T05:54:38.019Z,3.20
2022-09-23T05:57:25.149Z,2.10
2022-09-23T06:00:13.157Z,3.10
2022-09-23T06:03:00.435Z,3.10
2022-09-23T06:05:49.424Z,2.60
2022-09-23T06:08:36.191Z,2.80
2022-09-23T06:11:23.591Z,2.67
2022-09-23T06:14:13.223Z,2.40
2022-09-23T06:17:00.169Z,2.37
2022-09-23T06:19:47.237Z,2.27
2022-09-23T06:22:38.423Z,2.37
2022-09-23T06:25:26.721Z,2.23
2022-09-23T06:28:14.605Z,2.70
2022-09-23T06:31:03.232Z,2.07
2022-09-23T06:33:55.326Z,2.23
2022-09-23T06:36:46.734Z,2.27
2022-09-23T06:39:35.027Z,2.33
2022-09-23T06:42:21.822Z,2.30
2022-09-23T06:45:14.888Z,2.13
2022-09-23T06:48:04.938Z,2.53
2022-09-23T06:50:53.725Z,2.27
2022-09-23T06:53:40.662Z,2.10
2022-09-23T06:56:31.530Z,2.00
2022-09-23T06:59:21.682Z,1.93
2022-09-23T07:02:10.094Z,2.00
2022-09-23T07:04:57.581Z,2.00
2022-09-23T07:07:44.946Z,1.63
2022-09-23T07:10:32.035Z,1.93
2022-09-23T07:13:20.369Z,2.13
2022-09-23T07:16:07.488Z,2.00
2022-09-23T07:18:54.670Z,1.97
2022-09-23T07:21:42.494Z,1.97
2022-09-23T07:24:29.489Z,2.20
2022-09-23T07:27:19.377Z,1.90
2022-09-23T07:30:15.693Z,1.80
2022-09-23T07:33:26.552Z,2.13
2022-09-23T07:36:18.205Z,2.20
2022-09-23T07:39:05.381Z,2.00
2022-09-23T07:41:52.238Z,1.60
2022-09-23T07:44:38.922Z,1.93
2022-09-23T07:47:27.092Z,2.20
2022-09-23T07:50:14.161Z,1.90
2022-09-23T07:53:03.028Z,2.00
2022-09-23T07:55:54.167Z,1.90
2022-09-23T07:58:40.957Z,2.13
2022-09-23T08:01:29.478Z,1.90
2022-09-23T08:04:20.047Z,2.07
2022-09-23T08:07:08.027Z,2.05
2022-09-23T08:09:55.045Z,2.50
2022-09-23T08:12:41.883Z,1.73
2022-09-23T08:15:28.492Z,1.88
2022-09-23T08:18:15.532Z,2.20
2022-09-23T08:21:04.846Z,1.88
2022-09-23T08:23:51.966Z,1.85
2022-09-23T08:26:39.117Z,2.00
2022-09-23T08:29:26.786Z,2.08
2022-09-23T08:32:13.833Z,2.15
2022-09-23T08:35:00.960Z,1.77
2022-09-23T08:37:49.477Z,1.90
2022-09-23T08:40:38.190Z,1.92
2022-09-23T08:43:29.098Z,2.08
2022-09-23T08:46:22.457Z,1.75
2022-09-23T08:49:15.227Z,2.30
2022-09-23T08:52:09.590Z,1.63
2022-09-23T08:54:58.158Z,1.83
2022-09-23T08:58:23.286Z,1.95
2022-09-23T09:01:09.017Z,1.67
2022-09-23T09:03:57.692Z,1.75
2022-09-23T09:06:53.480Z,1.65
2022-09-23T09:09:46.131Z,1.90
2022-09-23T09:12:41.859Z,1.90
2022-09-23T09:15:29.666Z,1.90
2022-09-23T09:18:20.898Z,1.50
2022-09-23T09:21:13.715Z,1.35
2022-09-23T09:24:00.948Z,1.58
2022-09-23T09:26:48.019Z,1.65
2022-09-23T09:29:42.078Z,1.92
2022-09-23T09:32:38.319Z,1.67
2022-09-23T09:35:36.899Z,1.50
2022-09-23T09:38:24.208Z,1.40
2022-09-23T09:41:15.666Z,1.63
2022-09-23T09:44:09.637Z,1.70
2022-09-23T09:47:15.225Z,1.80
2022-09-23T09:50:09.295Z,1.63
2022-09-23T09:53:17.191Z,1.58
2022-09-23T09:56:06.356Z,1.50
2022-09-23T09:58:56.078Z,1.60
2022-09-23T10:01:43.361Z,1.55
2022-09-23T10:04:36.875Z,1.55
2022-09-23T10:07:28.822Z,2.00
2022-09-23T10:10:32.421Z,1.70
2022-09-23T10:13:22.131Z,1.85
2022-09-23T10:16:09.744Z,1.60
2022-09-23T10:18:57.355Z,1.70
2022-09-23T10:21:53.238Z,1.70
2022-09-23T10:24:48.335Z,1.80
2022-09-23T10:27:36.482Z,1.60
2022-09-23T10:30:25.048Z,1.90
2022-09-23T10:33:28.186Z,2.13
2022-09-23T10:36:17.317Z,1.50
2022-09-23T10:39:24.777Z,1.75
2022-09-23T10:42:40.758Z,1.60
2022-09-23T10:45:49.528Z,1.40
2022-09-23T10:48:49.808Z,1.40
2022-09-23T10:51:46.304Z,1.38
2022-09-23T10:54:44.065Z,1.85
2022-09-23T10:57:45.002Z,1.73
2022-09-23T11:00:42.690Z,1.52
2022-09-23T11:04:06.774Z,1.70
2022-09-23T11:07:08.977Z,1.60
2022-09-23T11:10:45.097Z,1.38
2022-09-23T11:13:54.570Z,1.50
2022-09-23T11:16:52.309Z,1.70
2022-09-23T11:20:00.336Z,1.75
2022-09-23T11:23:07.483Z,1.58
2022-09-23T11:26:06.213Z,1.35
2022-09-23T11:29:25.718Z,1.50
2022-09-23T11:32:33.576Z,1.60
2022-09-23T11:35:25.290Z,1.58
2022-09-23T11:38:18.795Z,1.40
2022-09-23T11:41:22.543Z,1.67
2022-09-23T11:44:17.120Z,1.50
2022-09-23T11:47:08.764Z,1.40
2022-09-23T11:50:00.843Z,1.27
2022-09-23T11:52:58.595Z,1.23
2022-09-23T11:55:57.532Z,1.30
2022-09-23T11:58:59.723Z,1.40
2022-09-23T12:01:51.528Z,1.50
2022-09-23T12:04:54.447Z,1.40
2022-09-23T12:07:54.139Z,1.60
2022-09-23T12:10:48.408Z,1.38
2022-09-23T12:13:46.571Z,1.13
2022-09-23T12:16:58.199Z,1.10
2022-09-23T12:20:09.464Z,1.33
2022-09-23T12:23:07.673Z,1.30
2022-09-23T12:25:57.932Z,1.60
2022-09-23T12:28:49.475Z,1.20
2022-09-23T12:31:43.041Z,1.30
2022-09-23T12:34:35.585Z,1.30
2022-09-23T12:37:33.963Z,1.30
2022-09-23T12:40:27.690Z,1.27
2022-09-23T12:43:19.635Z,1.70
2022-09-23T12:46:20.192Z,1.40
2022-09-23T12:49:25.263Z,1.17
2022-09-23T12:52:26.312Z,1.27
2022-09-23T12:55:51.655Z,1.55
2022-09-23T12:58:39.568Z,1.45
2022-09-23T13:01:27.548Z,1.55
2022-09-23T13:04:52.798Z,1.27
2022-09-23T13:07:45.998Z,1.10
2022-09-23T13:10:35.770Z,1.35
2022-09-23T13:13:28.328Z,1.40
2022-09-23T13:16:24.306Z,1.80
2022-09-23T13:19:48.084Z,1.35
2022-09-23T13:22:42.762Z,1.05
2022-09-23T13:25:33.460Z,1.52
2022-09-23T13:28:29.865Z,1.33
2022-09-23T13:31:21.247Z,1.40
2022-09-23T13:34:13.015Z,1.70
2022-09-23T13:37:21.598Z,1.60
2022-09-23T13:40:11.646Z,1.20
2022-09-23T13:43:02.198Z,1.40
2022-09-23T13:45:49.099Z,1.50
2022-09-23T13:48:36.588Z,1.40
2022-09-23T13:51:27.053Z,1.45
2022-09-23T13:54:29.507Z,1.45
2022-09-23T13:57:26.734Z,1.60
2022-09-23T14:00:21.066Z,1.08
2022-09-23T14:03:27.249Z,1.60
2022-09-23T14:06:16.646Z,1.40
2022-09-23T14:09:04.006Z,1.42
2022-09-23T14:11:52.977Z,1.20
2022-09-23T14:14:42.155Z,1.60
2022-09-23T14:17:29.686Z,1.35
2022-09-23T14:20:18.562Z,1.50
2022-09-23T14:23:07.046Z,1.67
2022-09-23T14:25:55.731Z,1.52
2022-09-23T14:28:44.019Z,1.65
2022-09-23T14:31:32.916Z,1.40
2022-09-23T14:34:44.893Z,1.80
2022-09-23T14:37:51.580Z,1.52
2022-09-23T14:40:50.803Z,1.70
2022-09-23T14:43:37.975Z,1.58
2022-09-23T14:46:28.283Z,1.48
2022-09-23T14:49:20.906Z,1.60
2022-09-23T14:52:08.075Z,1.75
2022-09-23T14:54:55.380Z,1.80
2022-09-23T14:57:43.629Z,1.70
2022-09-23T15:00:31.321Z,1.60
2022-09-23T15:03:21.169Z,1.25
2022-09-23T15:06:10.051Z,1.80
2022-09-23T15:08:57.609Z,1.40
2022-09-23T15:11:44.369Z,1.65
2022-09-23T15:14:39.161Z,1.50
2022-09-23T15:17:33.091Z,1.35
2022-09-23T15:20:24.414Z,1.58
2022-09-23T15:23:34.464Z,1.48
2022-09-23T15:26:23.422Z,1.40
2022-09-23T15:29:11.177Z,1.75
2022-09-23T15:31:58.497Z,1.50
2022-09-23T15:34:45.573Z,1.70
2022-09-23T15:37:36.339Z,1.60
2022-09-23T15:40:26.501Z,1.40
2022-09-23T15:43:21.143Z,1.38
2022-09-23T15:46:13.829Z,1.80
2022-09-23T15:49:04.804Z,1.50
2022-09-23T15:51:52.140Z,1.80
2022-09-23T15:54:40.483Z,1.52
2022-09-23T15:57:27.419Z,1.77
2022-09-23T16:00:16.106Z,1.63
2022-09-23T16:03:04.279Z,2.05
2022-09-23T16:06:03.611Z,1.63
2022-09-23T16:08:52.814Z,1.63
2022-09-23T16:11:44.566Z,1.70
2022-09-23T16:14:31.530Z,1.70
2022-09-23T16:17:18.544Z,1.70
2022-09-23T16:20:06.240Z,1.70
2022-09-23T16:22:55.640Z,1.55
2022-09-23T16:25:42.446Z,1.60
2022-09-23T16:28:30.499Z,1.40
2022-09-23T16:31:17.460Z,1.38
2022-09-23T16:34:04.307Z,1.50
2022-09-23T16:36:51.311Z,2.00
2022-09-23T16:39:38.149Z,1.50
2022-09-23T16:42:25.021Z,1.90
2022-09-23T16:45:16.390Z,1.80
2022-09-23T16:48:03.267Z,1.70
2022-09-23T16:50:50.350Z,1.87
2022-09-23T16:53:37.658Z,2.10
2022-09-23T16:56:28.833Z,1.70
2022-09-23T16:59:17.121Z,1.70
2022-09-23T17:02:27.567Z,1.60
2022-09-23T17:05:18.508Z,1.60
2022-09-23T17:08:07.775Z,1.77
2022-09-23T17:10:59.602Z,1.57
2022-09-23T17:13:47.655Z,1.80
2022-09-23T17:16:35.704Z,1.70
2022-09-23T17:19:23.938Z,2.00
2022-09-23T17:22:10.958Z,1.80
2022-09-23T17:24:57.986Z,1.63
2022-09-23T17:27:44.951Z,2.00
2022-09-23T17:30:32.327Z,1.90
2022-09-23T17:33:20.707Z,1.90
2022-09-23T17:36:10.915Z,1.70
2022-09-23T17:38:57.562Z,1.77
2022-09-23T17:41:45.468Z,1.80
2022-09-23T17:44:32.386Z,1.80
2022-09-23T17:47:19.328Z,1.93
2022-09-23T17:50:07.129Z,1.83
2022-09-23T17:52:55.368Z,1.83
2022-09-23T17:55:41.983Z,2.10
2022-09-23T17:58:31.175Z,1.87
2022-09-23T18:01:20.266Z,1.83
2022-09-23T18:04:07.254Z,2.47
2022-09-23T18:06:54.058Z,1.70
2022-09-23T18:09:42.077Z,1.80
2022-09-23T18:12:28.863Z,2.30
2022-09-23T18:15:19.988Z,1.90
2022-09-23T18:18:09.790Z,2.20
2022-09-23T18:21:01.622Z,2.33
2022-09-23T18:23:48.625Z,2.37
2022-09-23T18:26:38.063Z,2.73
2022-09-23T18:29:24.947Z,2.50
2022-09-23T18:32:14.190Z,3.03
2022-09-23T18:35:01.354Z,2.93
2022-09-23T18:37:48.338Z,2.77
2022-09-23T18:40:35.519Z,2.50
2022-09-23T18:43:25.806Z,3.10
2022-09-23T18:46:15.772Z,2.87
2022-09-23T18:49:20.158Z,2.17
2022-09-23T18:52:07.208Z,2.77
2022-09-23T18:54:55.103Z,2.73
2022-09-23T18:57:42.270Z,2.67
2022-09-23T19:00:30.868Z,2.40
2022-09-23T19:03:17.885Z,2.63
2022-09-23T19:06:07.218Z,2.87
2022-09-23T19:08:55.697Z,2.87
2022-09-23T19:11:42.946Z,2.40
2022-09-23T19:14:29.662Z,2.63
2022-09-23T19:17:18.262Z,2.53
2022-09-23T19:20:05.560Z,2.77
2022-09-23T19:22:52.565Z,2.70
2022-09-23T19:25:39.476Z,2.70
2022-09-23T19:28:26.455Z,2.70
2022-09-23T19:31:16.682Z,3.00
2022-09-23T19:34:10.758Z,3.00
2022-09-23T19:36:58.490Z,3.23
2022-09-23T19:39:47.564Z,2.77
2022-09-23T19:42:35.982Z,3.10
2022-09-23T19:45:22.953Z,3.40
2022-09-23T19:48:10.206Z,3.13
2022-09-23T19:50:58.244Z,2.87
2022-09-23T19:53:45.593Z,3.23
2022-09-23T19:56:33.514Z,3.10
2022-09-23T19:59:20.225Z,3.33
2022-09-23T20:02:07.658Z,3.23
2022-09-23T20:04:54.619Z,3.30
2022-09-23T20:07:43.204Z,2.90
2022-09-23T20:10:29.922Z,2.83
2022-09-23T20:13:17.427Z,2.70
2022-09-23T20:16:06.420Z,3.10
2022-09-23T20:18:53.979Z,3.17
2022-09-23T20:21:40.637Z,3.10
2022-09-23T20:24:29.793Z,3.27
2022-09-23T20:27:16.696Z,2.73
2022-09-23T20:30:03.920Z,2.37
2022-09-23T20:32:50.972Z,2.50
2022-09-23T20:35:37.894Z,2.60
2022-09-23T20:38:25.180Z,2.50
2022-09-23T20:41:14.839Z,2.80
2022-09-23T20:44:02.342Z,2.70
2022-09-23T20:46:49.548Z,2.93
2022-09-23T20:49:37.747Z,2.40
2022-09-23T20:52:24.929Z,2.80
2022-09-23T20:55:11.928Z,2.63
2022-09-23T20:58:01.533Z,2.20
2022-09-23T21:00:48.622Z,3.10
2022-09-23T21:03:35.433Z,2.50
2022-09-23T21:06:24.354Z,2.63
2022-09-23T21:09:11.456Z,2.20
2022-09-23T21:11:58.364Z,2.57
2022-09-23T21:14:46.464Z,2.53
2022-09-23T21:17:33.614Z,2.83
2022-09-23T21:20:20.920Z,2.33
2022-09-23T21:23:08.070Z,2.70
2022-09-23T21:26:00.860Z,2.40
2022-09-23T21:28:49.997Z,2.47
2022-09-23T21:31:40.080Z,2.53
2022-09-23T21:34:28.301Z,2.80
2022-09-23T21:37:15.353Z,2.40
2022-09-23T21:40:20.699Z,2.60
2022-09-23T21:43:07.622Z,2.27
2022-09-23T21:45:59.681Z,2.60
2022-09-23T21:48:49.868Z,3.17
2022-09-23T21:51:40.857Z,2.40
2022-09-23T21:54:29.669Z,2.90
2022-09-23T21:57:16.601Z,2.77
2022-09-23T22:00:04.005Z,2.60
2022-09-23T22:02:52.444Z,2.37
2022-09-23T22:05:43.587Z,2.70
2022-09-23T22:08:36.980Z,2.30
2022-09-23T22:11:42.442Z,2.70
2022-09-23T22:14:30.669Z,2.77
2022-09-23T22:17:17.479Z,2.10
2022-09-23T22:20:04.706Z,2.57
2022-09-23T22:22:53.182Z,2.37
2022-09-23T22:25:40.054Z,2.27
2022-09-23T22:28:44.628Z,2.70
2022-09-23T22:31:48.775Z,2.60
2022-09-23T22:34:49.421Z,2.80
2022-09-23T22:37:37.498Z,3.10
2022-09-23T22:40:25.737Z,2.50
2022-09-23T22:43:12.984Z,2.70
2022-09-23T22:46:00.808Z,2.80
2022-09-23T22:48:47.667Z,2.47
2022-09-23T22:51:34.487Z,2.43
2022-09-23T22:54:22.155Z,2.43
2022-09-23T22:57:10.610Z,2.70
2022-09-23T22:59:57.657Z,2.50
2022-09-23T23:02:44.493Z,2.73
2022-09-23T23:05:31.210Z,2.47
2022-09-23T23:08:18.348Z,2.87
2022-09-23T23:11:10.119Z,3.00
2022-09-23T23:13:59.564Z,2.90
2022-09-23T23:16:47.670Z,2.80
2022-09-23T23:19:35.071Z,2.70
2022-09-23T23:22:21.933Z,2.60
2022-09-23T23:25:09.800Z,2.57
2022-09-23T23:27:56.711Z,2.80
2022-09-23T23:30:44.966Z,2.67
2022-09-23T23:33:31.783Z,2.70
2022-09-23T23:36:21.162Z,2.43
2022-09-23T23:39:20.158Z,2.87
2022-09-23T23:42:07.209Z,2.83
2022-09-23T23:44:54.051Z,2.90
2022-09-23T23:47:42.428Z,3.27
2022-09-23T23:50:29.026Z,2.70
2022-09-23T23:53:16.586Z,3.37
2022-09-23T23:56:05.068Z,2.93
2022-09-23T23:58:55.526Z,3.20
